Latest Weather Observations for East Sale

IDV60801

Issued at 8:35 pm EDT Monday 20 October 2014 (issued every 30 minutes, with the page automatically refreshed every 10 minutes)

About weather observations | Map of weather stations | Latest weather observations for VIC | Other Formats
Station Details ID: 085072 Name: EAST SALE AIRPORT Lat: -38.12 Lon: 147.13 Height: 4.6 m
Data from the previous 72 hours. | See also: Recent months at East Sale
Date/Time
EDT
Temp
°C
App
Temp
°C
Dew
Point
Rel
Hum
%
Delta-T
°C
Wind Press
QNH
hPa
Press
MSL
hPa
Rain
since 9 am
mm
Dir
 
Spd
km/h
Gust
km/h
Spd
kts
Gust
kts
20/08:30pm 12.5 5.5 6.1 65 3.0 E 32 48 17 26 1031.6 - 0.0
20/08:00pm 12.8 5.4 5.0 59 3.6 E 33 44 18 24 1031.5 - 0.0
20/07:30pm 12.5 5.9 5.9 64 3.1 E 30 39 16 21 1031.5 - 0.0
20/07:00pm 13.3 5.9 5.1 57 3.8 E 33 43 18 23 1031.2 - 0.0
20/06:30pm 13.8 6.1 5.5 57 3.9 E 35 46 19 25 1031.1 - 0.0
20/06:00pm 14.1 6.8 5.6 56 4.0 E 33 46 18 25 1031.1 1031.1 0.0
20/05:30pm 14.7 7.1 5.7 55 4.3 E 35 46 19 25 1030.9 - 0.0
20/05:00pm 14.4 6.7 5.5 55 4.2 E 35 46 19 25 1030.8 - 0.0
20/04:30pm 15.0 7.4 5.8 54 4.4 E 35 46 19 25 1030.8 - 0.0
20/04:00pm 16.0 7.9 6.9 54 4.5 E 39 44 21 24 1030.8 - 0.0
20/03:30pm 16.1 8.4 7.0 54 4.5 E 37 46 20 25 1030.7 - 0.0
20/03:00pm 16.0 8.1 7.8 58 4.1 E 39 48 21 26 1030.7 1030.7 0.0
20/02:30pm 16.6 8.8 8.4 58 4.2 E 39 50 21 27 1030.9 - 0.0
20/02:00pm 16.4 8.9 7.9 57 4.3 E 37 44 20 24 1031.1 - 0.0
20/01:30pm 16.3 9.0 4.6 46 5.5 ESE 32 39 17 21 1031.2 - 0.0
20/01:00pm 16.2 10.4 6.1 51 4.9 E 26 33 14 18 1031.3 - 0.0
20/12:30pm 16.2 11.0 7.4 56 4.4 ESE 24 33 13 18 1031.7 - 0.0
20/12:00pm 15.7 11.3 7.5 58 4.0 E 20 30 11 16 1032.1 1032.1 0.0
20/11:30am 14.7 10.1 6.4 57 4.0 E 20 28 11 15 1032.3 - 0.0
20/11:00am 15.5 11.3 5.7 52 4.7 ENE 17 35 9 19 1032.5 - 0.0
20/10:30am 15.3 10.4 2.3 41 5.8 E 17 20 9 11 1032.5 - 0.0
20/10:00am 14.8 11.6 5.0 52 4.6 ESE 11 20 6 11 1032.5 - 0.0
20/09:30am 14.3 10.1 5.9 57 4.0 SE 17 24 9 13 1032.5 - 0.0
20/09:00am 13.8 10.0 5.8 58 3.8 SSE 15 19 8 10 1032.4 1032.4 0.0
20/08:30am 12.8 9.8 6.0 63 3.2 S 11 15 6 8 1032.0 - 0.0
20/08:00am 11.0 8.0 6.1 72 2.3 S 11 13 6 7 1031.6 - 0.0
20/07:30am 10.2 8.0 6.3 77 1.8 SSW 7 9 4 5 1031.3 - 0.0
20/07:00am 8.7 6.0 5.4 80 1.5 SW 9 11 5 6 1031.1 - 0.0
20/06:30am 8.5 6.2 5.9 84 1.2 SW 7 9 4 5 1030.9 - 0.0
20/06:00am 8.6 5.9 5.5 81 1.4 SW 9 13 5 7 1030.7 1030.7 0.0
20/05:30am 9.4 6.0 5.9 79 1.6 SSW 13 17 7 9 1030.5 - 0.0
20/05:00am 9.5 6.6 6.3 80 1.5 SW 11 13 6 7 1030.3 - 0.0
20/04:30am 10.2 7.0 6.8 79 1.6 SW 13 20 7 11 1030.2 - 0.0
20/04:00am 11.1 7.6 7.3 77 1.8 SW 15 19 8 10 1030.1 - 0.0
20/03:30am 11.5 8.4 7.3 75 2.0 SW 13 20 7 11 1030.2 - 0.0
20/03:00am 11.4 8.4 7.7 78 1.8 WSW 13 17 7 9 1029.9 1029.9 0.0
20/02:30am 11.5 9.3 7.8 78 1.8 SW 9 15 5 8 1029.7 - 0.0
20/02:00am 11.8 8.8 7.5 75 2.1 SSW 13 20 7 11 1029.6 - 0.0
20/01:30am 11.5 8.8 7.3 75 2.0 SW 11 19 6 10 1029.4 - 0.0
20/01:00am 11.8 7.9 7.2 73 2.2 SW 17 24 9 13 1029.3 - 0.0
20/12:30am 12.3 6.9 7.8 74 2.2 SSW 26 35 14 19 1028.7 - 0.0
20/12:00am 13.3 8.2 9.2 76 2.1 SSW 26 39 14 21 1028.1 1028.1 0.0
 
Date/Time
EDT
Temp
°C
App
Temp
°C
Dew
Point
Rel
Hum
%
Delta-T
°C
Wind Press
QNH
hPa
Press
MSL
hPa
Rain
since 9 am
mm
Dir
 
Spd
km/h
Gust
km/h
Spd
kts
Gust
kts
19/11:30pm 13.3 9.3 9.2 76 2.1 SSW 20 32 11 17 1027.6 - 0.0
19/11:00pm 14.3 11.4 9.6 73 2.4 SSW 15 22 8 12 1027.3 - 0.0
19/10:30pm 14.4 12.4 10.2 76 2.2 SSW 11 17 6 9 1026.5 - 0.0
19/10:00pm 14.5 12.5 10.3 76 2.2 SW 11 17 6 9 1026.1 - 0.0
19/09:30pm 14.5 12.1 10.1 75 2.3 SW 13 17 7 9 1025.5 - 0.0
19/09:00pm 14.7 11.0 10.1 74 2.4 SW 20 32 11 17 1024.5 1024.5 0.0
19/08:30pm 15.3 13.0 10.6 73 2.5 SW 13 17 7 9 1023.7 - 0.0
19/08:00pm 15.7 13.3 11.4 75 2.3 SW 15 20 8 11 1022.7 - 0.0
19/07:30pm 16.2 12.1 11.4 73 2.6 SW 24 33 13 18 1021.8 - 0.0
19/07:00pm 16.0 12.7 12.7 81 1.8 S 22 28 12 15 1020.8 - 0.0
19/06:30pm 16.6 13.0 13.0 79 2.0 S 24 37 13 20 1019.5 - 0.0
19/06:00pm 18.1 14.3 12.3 69 3.2 SSE 24 35 13 19 1018.9 1018.9 0.0
19/05:30pm 20.5 18.6 13.1 62 4.2 SSE 15 22 8 12 1018.4 - 0.0
19/05:23pm 22.2 19.2 12.1 52 5.7 WNW 19 26 10 14 1018.0 - 0.0
19/05:00pm 27.4 21.0 5.2 24 11.4 WNW 28 35 15 19 1017.5 - 0.0
19/04:30pm 28.1 21.5 4.3 22 12.1 NW 28 41 15 22 1017.3 - 0.0
19/04:00pm 24.9 20.6 8.0 34 9.0 NW 20 24 11 13 1017.4 - 0.0
19/03:30pm 24.9 20.5 9.0 36 8.6 NW 22 28 12 15 1017.5 - 0.0
19/03:00pm 26.4 20.1 5.9 27 10.6 NW 28 35 15 19 1017.5 1017.5 0.0
19/02:30pm 28.0 21.4 6.0 24 11.5 WNW 30 39 16 21 1017.9 - 0.0
19/02:00pm 27.5 20.1 3.8 22 11.9 NW 32 43 17 23 1018.3 - 0.0
19/01:30pm 26.7 21.2 6.1 27 10.7 NW 24 32 13 17 1018.7 - 0.0
19/01:00pm 26.0 21.6 7.6 31 9.8 NW 20 26 11 14 1019.1 - 0.0
19/12:30pm 24.8 20.8 8.1 34 8.9 NW 19 26 10 14 1019.2 - 0.0
19/12:00pm 25.2 20.5 6.2 29 9.8 NW 20 26 11 14 1019.6 1019.6 0.0
19/11:30am 24.9 19.6 9.8 38 8.3 NW 28 39 15 21 1020.2 - 0.0
19/11:25am 24.8 19.5 11.3 42 7.6 NW 30 35 16 19 1020.2 - 0.0
19/11:00am 23.5 21.1 8.5 38 8.0 NW 11 13 6 7 1020.5 - 0.0
19/10:30am 23.3 20.4 6.6 34 8.6 N 11 15 6 8 1020.6 - 0.0
19/10:00am 23.4 20.4 7.5 36 8.3 N 13 17 7 9 1020.7 - 0.0
19/09:30am 20.3 19.1 11.6 57 4.8 WNW 9 11 5 6 1021.1 - 0.0
19/09:00am 17.5 16.1 11.0 65 3.5 NW 9 11 5 6 1021.2 1021.2 0.0
19/08:30am 15.4 14.3 12.1 81 1.8 WNW 9 9 5 5 1021.1 - 0.0
19/08:00am 14.6 13.3 11.2 80 1.8 NW 9 11 5 6 1020.7 - 0.0
19/07:30am 12.6 11.1 10.5 87 1.1 NNW 9 11 5 6 1020.4 - 0.0
19/07:00am 11.9 10.7 10.3 90 0.8 N 7 9 4 5 1020.3 - 0.0
19/06:30am 11.8 10.6 10.4 91 0.7 NNW 7 9 4 5 1020.2 - 0.0
19/06:00am 11.8 10.8 10.4 91 0.7 SW 6 7 3 4 1020.1 1020.1 0.0
19/05:30am 12.1 11.1 10.4 89 0.9 S 6 9 3 5 1020.1 - 0.0
19/05:00am 11.9 11.0 9.3 84 1.3 SSW 4 7 2 4 1020.1 - 0.0
19/04:30am 11.4 9.6 9.4 87 1.0 NNW 9 9 5 5 1020.1 - 0.0
19/04:00am 11.4 10.0 9.0 85 1.2 N 6 11 3 6 1020.4 - 0.0
19/03:30am 11.2 10.1 8.3 82 1.4 NW 4 6 2 3 1020.9 - 0.0
19/03:00am 10.7 8.3 8.5 86 1.1 N 11 15 6 8 1021.1 1021.1 0.0
19/02:30am 9.0 8.5 8.0 93 0.5 CALM 0 0 0 0 1021.8 - 0.0
19/02:00am 9.3 8.5 8.3 93 0.5 W 2 7 1 4 1022.4 - 0.0
19/01:30am 9.7 9.0 8.5 92 0.6 NE 2 7 1 4 1022.8 - 0.0
19/01:00am 9.5 7.9 8.0 90 0.7 N 6 7 3 4 1023.1 - 0.0
19/12:30am 11.5 9.8 9.7 89 0.9 WNW 9 11 5 6 1023.8 - 0.0
19/12:00am 11.2 9.0 9.2 87 1.0 WNW 11 13 6 7 1024.1 1024.1 0.0
 
Date/Time
EDT
Temp
°C
App
Temp
°C
Dew
Point
Rel
Hum
%
Delta-T
°C
Wind Press
QNH
hPa
Press
MSL
hPa
Rain
since 9 am
mm
Dir
 
Spd
km/h
Gust
km/h
Spd
kts
Gust
kts
18/11:30pm 12.5 11.1 9.5 82 1.5 NNE 7 9 4 5 1024.3 - 0.0
18/11:00pm 13.1 11.8 9.8 80 1.7 E 7 9 4 5 1024.4 - 0.0
18/10:30pm 13.0 10.7 10.5 85 1.3 E 13 15 7 8 1024.5 - 0.0
18/10:00pm 13.4 11.6 10.9 85 1.3 ESE 11 15 6 8 1024.8 - 0.0
18/09:30pm 13.9 11.9 11.5 85 1.3 SSE 13 15 7 8 1024.9 - 0.0
18/09:00pm 14.0 12.1 10.6 80 1.8 SE 11 13 6 7 1024.7 1024.7 0.0
18/08:30pm 14.9 14.4 10.7 76 2.2 S 4 7 2 4 1024.3 - 0.0
18/08:00pm 15.6 16.0 11.1 74 2.4 CALM 0 0 0 0 1023.9 - 0.0
18/07:30pm 16.0 15.0 11.1 72 2.6 NNE 7 11 4 6 1023.6 - 0.0
18/07:00pm 16.4 13.2 11.2 71 2.8 ENE 19 24 10 13 1022.7 - 0.0
18/06:30pm 17.1 14.5 12.0 72 2.8 E 17 20 9 11 1022.5 - 0.0
18/06:00pm 18.0 15.2 11.2 64 3.7 ENE 17 22 9 12 1023.2 1023.2 0.0
18/05:30pm 18.9 15.7 11.8 63 3.9 E 20 22 11 12 1023.1 - 0.0
18/05:00pm 19.4 16.2 11.2 59 4.5 ENE 19 24 10 13 1022.8 - 0.0
18/04:30pm 20.0 16.1 10.8 55 5.0 E 22 26 12 14 1022.4 - 0.0
18/04:00pm 21.6 19.6 10.0 47 6.3 E 11 17 6 9 1022.7 - 0.0
18/03:30pm 22.2 19.4 8.4 41 7.3 NE 13 17 7 9 1023.1 - 0.0
18/03:00pm 21.9 20.1 9.4 45 6.7 N 9 13 5 7 1023.4 1023.4 0.0
18/02:30pm 21.6 19.9 7.7 40 7.2 N 6 11 3 6 1024.0 - 0.0
18/02:00pm 21.2 19.3 7.7 41 7.0 NW 7 11 4 6 1024.6 - 0.0
18/01:30pm 21.7 20.4 9.1 44 6.7 N 6 9 3 5 1024.9 - 0.0
18/01:00pm 20.3 19.9 11.0 55 5.1 WNW 4 9 2 5 1025.5 - 0.0
18/12:30pm 19.8 18.4 8.7 48 5.8 WSW 6 9 3 5 1026.1 - 0.0
18/12:00pm 18.8 17.3 9.3 54 5.0 N 7 9 4 5 1026.6 1026.6 0.0
18/11:30am 17.5 16.2 10.1 62 3.9 NNW 7 13 4 7 1026.8 - 0.0
18/11:00am 16.6 15.4 9.7 63 3.6 NNW 6 11 3 6 1027.1 - 0.0
18/10:30am 15.6 14.3 9.2 65 3.3 N 6 13 3 7 1027.2 - 0.0
18/10:00am 14.7 14.3 9.9 73 2.5 NNW 2 9 1 5 1027.5 - 0.0
18/09:30am 13.2 11.7 9.3 77 2.0 NW 7 11 4 6 1027.9 - 0.0
18/09:00am 12.1 10.7 8.7 80 1.7 NW 6 9 3 5 1027.9 1027.9 0.0
18/08:30am 10.2 8.6 7.9 86 1.1 WNW 6 7 3 4 1027.8 - 0.0
18/08:00am 8.5 6.5 7.2 91 0.6 WNW 7 9 4 5 1027.7 - 0.0
18/07:30am 7.0 4.4 6.3 95 0.3 NW 9 9 5 5 1027.6 - 0.0
18/07:00am 5.1 2.6 4.6 97 0.2 NW 7 7 4 4 1027.2 - 0.0
18/06:30am 4.8 2.5 4.8 100 0.0 NNW 6 7 3 4 1026.8 - 0.0
18/06:00am 4.5 1.5 4.0 97 0.2 NW 9 11 5 6 1026.5 1026.5 0.0
18/05:30am 5.2 3.6 4.7 97 0.2 NNW 2 7 1 4 1026.2 - 0.0
18/05:00am 5.2 2.9 4.7 97 0.2 NW 6 7 3 4 1026.3 - 0.0
18/04:30am 7.1 4.8 5.8 91 0.6 NE 7 9 4 5 1026.3 - 0.0
18/04:00am 6.9 4.6 5.6 91 0.6 ESE 7 9 4 5 1026.3 - 0.0
18/03:30am 7.7 5.1 5.9 88 0.8 ESE 9 11 5 6 1026.4 - 0.0
18/03:00am 7.1 6.2 6.2 94 0.4 CALM 0 0 0 0 1027.0 1027.0 0.0
18/02:30am 7.5 5.5 6.4 93 0.5 NNW 6 6 3 3 1027.2 - 0.0
18/02:00am 9.0 7.1 6.9 87 1.0 N 6 6 3 3 1027.4 - 0.0
18/01:30am 9.8 7.7 6.8 81 1.4 N 7 9 4 5 1027.4 - 0.0
18/01:00am 10.2 8.2 7.0 80 1.5 N 7 11 4 6 1027.8 - 0.0
18/12:30am 10.0 8.0 7.3 83 1.3 N 7 7 4 4 1028.1 - 0.0
18/12:00am 9.9 6.8 7.4 84 1.2 NE 13 17 7 9 1028.0 1028.0 0.0
 
Date/Time
EDT
Temp
°C
App
Temp
°C
Dew
Point
Rel
Hum
%
Delta-T
°C
Wind Press
QNH
hPa
Press
MSL
hPa
Rain
since 9 am
mm
Dir
 
Spd
km/h
Gust
km/h
Spd
kts
Gust
kts
17/11:30pm 11.8 8.5 7.9 77 1.9 ENE 15 20 8 11 1028.0 - 0.0
17/11:00pm 12.6 8.3 7.9 73 2.3 ENE 20 26 11 14 1028.0 - 0.0
17/10:30pm 12.8 9.1 8.1 73 2.3 ENE 17 20 9 11 1028.2 - 0.0
17/10:00pm 12.7 8.6 7.8 72 2.4 ENE 19 24 10 13 1028.0 - 0.0
17/09:30pm 12.2 8.0 8.1 76 2.0 ENE 20 26 11 14 1028.0 - 0.0
17/09:00pm 11.7 7.8 8.5 81 1.6 ENE 19 24 10 13 1027.7 1027.7 0.0

Other Formats:

Comma delimited format used in spreadsheet applications
http://www.bom.gov.au/fwo/IDV60801/IDV60801.94907.axf

JavaScript Object Notation format (JSON) in row-major order
http://www.bom.gov.au/fwo/IDV60801/IDV60801.94907.json